Atlantic Aquarius — VRDX6 — position and weather

sailwx.info

Track history (hours):
 
Tides and Currents Weather Stations Pressure Air Temp Water Temp Dewpoint Dewpoint Depression Visibility Wind Speed Wind Dir Waves Ship Positions

Atlantic Aquarius

Last reported at 2015-Jun-27 18:29 UTC. Time now 2015-Jul-01 01:49 UTC.
Position N 22°49' E 119°54'.

Length 183 m; draft 11 m.

Type: Tanker. MMSI: 477071400.

Date/timePositionNaut miles runAvg speedWind from/ knotsBaromVisibWave heightAir tempDewpointWater temp
2015-Jun-27 18:29N 22°49' E 119°54'1212.7
2015-Jun-27 17:33N 22°37' E 119°54'10 9.8
2015-Jun-27 16:32N 22°29' E 119°49'30013.0
2015-Jun-26 17:30N 22°08' E 114°25'1411.6
2015-Jun-26 16:15N 22°13' E 114°10'6 8.9
2015-Jun-26 15:33N 22°17' E 114°06'0 0.1
2015-Jun-26 14:33N 22°17' E 114°06'0 0.0
2015-Jun-26 13:27N 22°17' E 114°06'0 0.1
2015-Jun-26 12:32N 22°17' E 114°06'0 0.0
2015-Jun-26 11:33N 22°17' E 114°06'0 0.1
2015-Jun-26 10:33N 22°17' E 114°06'0 0.0
2015-Jun-26 09:32N 22°17' E 114°06'0 0.0
2015-Jun-26 08:33N 22°17' E 114°06'0 0.1
2015-Jun-26 07:33N 22°17' E 114°06'0 0.0
2015-Jun-26 06:32N 22°17' E 114°06'0 0.1
2015-Jun-26 05:33N 22°17' E 114°06'0 0.1
2015-Jun-26 04:33N 22°17' E 114°06'0 0.1
2015-Jun-26 03:33N 22°17' E 114°06'0 0.0
2015-Jun-26 02:33N 22°17' E 114°06'0 0.0
2015-Jun-26 01:32N 22°17' E 114°06'0 0.0
2015-Jun-26 00:33N 22°17' E 114°06'0 0.1
2015-Jun-25 23:33N 22°17' E 114°06'0 0.0
2015-Jun-25 22:33N 22°17' E 114°06'0 0.1
2015-Jun-25 21:33N 22°17' E 114°06'0 0.1
2015-Jun-25 20:33N 22°17' E 114°06'0 0.2
2015-Jun-25 19:33N 22°17' E 114°06'11 5.6
2015-Jun-25 17:32N 22°09' E 114°14'9 9.3
2015-Jun-25 16:31N 22°07' E 114°24'  
2015-Jun-20 20:15N 01°16' E 104°11'710.1
2015-Jun-20 19:34N 01°20' E 104°05'12 0.3
2015-Jun-19 04:26N 01°26' E 103°54'7 7.2
2015-Jun-19 03:29N 01°24' E 104°01'7 1.6
2015-Jun-18 23:22N 01°20' E 104°06'0 0.1
2015-Jun-18 22:22N 01°20' E 104°06'0 0.0
2015-Jun-18 21:25N 01°20' E 104°06'0 0.0
2015-Jun-18 20:31N 01°20' E 104°06'0 0.1
2015-Jun-18 19:25N 01°20' E 104°06'0 0.0
2015-Jun-18 10:28N 01°20' E 104°06'0 0.1
2015-Jun-18 09:22N 01°20' E 104°06'0 0.0
2015-Jun-18 03:24N 01°20' E 104°06'3 3.8
2015-Jun-18 02:33N 01°17' E 104°08'  
Track history (hours):
 
Tides and Currents Weather Stations Pressure Air Temp Water Temp Dewpoint Dewpoint Depression Visibility Wind Speed Wind Dir Waves Ship Positions

Atlantic Aquarius

Last reported at 2015-Jun-27 18:29 UTC. Time now 2015-Jul-01 01:49 UTC.
Position N 22°49' E 119°54'.

Length 183 m; draft 11 m.

Type: Tanker. MMSI: 477071400.

Date/timePositionNaut miles runAvg speedWind from/ knotsBaromVisibWave heightAir tempDewpointWater temp
2015-Jun-27 18:29N 22°49' E 119°54'1212.7
2015-Jun-27 17:33N 22°37' E 119°54'10 9.8
2015-Jun-27 16:32N 22°29' E 119°49'30013.0
2015-Jun-26 17:30N 22°08' E 114°25'1411.6
2015-Jun-26 16:15N 22°13' E 114°10'6 8.9
2015-Jun-26 15:33N 22°17' E 114°06'0 0.1
2015-Jun-26 14:33N 22°17' E 114°06'0 0.0
2015-Jun-26 13:27N 22°17' E 114°06'0 0.1
2015-Jun-26 12:32N 22°17' E 114°06'0 0.0
2015-Jun-26 11:33N 22°17' E 114°06'0 0.1
2015-Jun-26 10:33N 22°17' E 114°06'0 0.0
2015-Jun-26 09:32N 22°17' E 114°06'0 0.0
2015-Jun-26 08:33N 22°17' E 114°06'0 0.1
2015-Jun-26 07:33N 22°17' E 114°06'0 0.0
2015-Jun-26 06:32N 22°17' E 114°06'0 0.1
2015-Jun-26 05:33N 22°17' E 114°06'0 0.1
2015-Jun-26 04:33N 22°17' E 114°06'0 0.1
2015-Jun-26 03:33N 22°17' E 114°06'0 0.0
2015-Jun-26 02:33N 22°17' E 114°06'0 0.0
2015-Jun-26 01:32N 22°17' E 114°06'0 0.0
2015-Jun-26 00:33N 22°17' E 114°06'0 0.1
2015-Jun-25 23:33N 22°17' E 114°06'0 0.0
2015-Jun-25 22:33N 22°17' E 114°06'0 0.1
2015-Jun-25 21:33N 22°17' E 114°06'0 0.1
2015-Jun-25 20:33N 22°17' E 114°06'0 0.2
2015-Jun-25 19:33N 22°17' E 114°06'11 5.6
2015-Jun-25 17:32N 22°09' E 114°14'9 9.3
2015-Jun-25 16:31N 22°07' E 114°24'  
2015-Jun-20 20:15N 01°16' E 104°11'710.1
2015-Jun-20 19:34N 01°20' E 104°05'12 0.3
2015-Jun-19 04:26N 01°26' E 103°54'7 7.2
2015-Jun-19 03:29N 01°24' E 104°01'7 1.6
2015-Jun-18 23:22N 01°20' E 104°06'0 0.1
2015-Jun-18 22:22N 01°20' E 104°06'0 0.0
2015-Jun-18 21:25N 01°20' E 104°06'0 0.0
2015-Jun-18 20:31N 01°20' E 104°06'0 0.1
2015-Jun-18 19:25N 01°20' E 104°06'0 0.0
2015-Jun-18 10:28N 01°20' E 104°06'0 0.1
2015-Jun-18 09:22N 01°20' E 104°06'0 0.0
2015-Jun-18 03:24N 01°20' E 104°06'3 3.8
2015-Jun-18 02:33N 01°17' E 104°08'  

Dump ship's entire track history